Main page
METAR-TAF:

METAR-TAF

Airports :

Kilimanjaro International Airport

Kilimanjaro, Tanzania

latitude: 03-25S, longitude: 037-04E, elevation: 891 m

Current weather observation

The report was made 1 hour and 37 minutes ago, at 12:00 UTC
Wind 11 kt from the East
Temperature 31°C
Humidity 36%
Pressure 1015 hPa
Visibility 10 km or more
Scattered clouds at a height of 3400 ft

METAR: HTKJ 201200Z 09011KT 9999 SCT034 31/14 Q1015 NOSIG

Time: 16:37 (13:37 UTC)

Forecast

Forecast valid from 20 at 00 UTC to 20 at 24 UTC
Wind kt from the North
Visibility 10 km or more
Few clouds at a height of 2400 ft

TAF: HTKJ 2000/2024 00000KT 9999 FEW024

Weather observations and forecasts of more than 4000 airports (METAR and TAF reports).

The available stations are represented by yellow and red dots on the map.

Hover mouse over dot to see the name of the station.

Then click to see weather observations and forecasts.

To change the map : click on the green buttons with a black cross to zoom in, on the green button with a dash to zoom out, or on the green arrows for adjacent maps.


METAR-TAF: